createdAt,value
2019-05-11T00:00:24.430Z,5.20
2019-05-11T00:01:00.270Z,4.77
2019-05-11T00:01:36.154Z,4.57
2019-05-11T00:02:12.025Z,5.10
2019-05-11T00:02:49.567Z,5.50
2019-05-11T00:03:25.572Z,5.50
2019-05-11T00:04:01.579Z,5.60
2019-05-11T00:04:37.780Z,5.20
2019-05-11T00:05:13.859Z,5.80
2019-05-11T00:05:49.773Z,5.10
2019-05-11T00:06:25.715Z,4.80
2019-05-11T00:07:01.814Z,5.33
2019-05-11T00:07:37.889Z,5.57
2019-05-11T00:08:13.865Z,4.37
2019-05-11T00:08:49.872Z,5.13
2019-05-11T00:09:25.959Z,4.43
2019-05-11T00:10:01.811Z,4.90
2019-05-11T00:10:39.983Z,4.23
2019-05-11T00:11:15.836Z,4.23
2019-05-11T00:11:51.692Z,4.47
2019-05-11T00:12:27.547Z,4.07
2019-05-11T00:13:04.689Z,4.80
2019-05-11T00:13:40.565Z,4.37
2019-05-11T00:14:16.547Z,5.43
2019-05-11T00:14:52.537Z,5.00
2019-05-11T00:15:28.422Z,4.90
2019-05-11T00:16:04.297Z,5.40
2019-05-11T00:16:40.205Z,4.17
2019-05-11T00:17:16.075Z,5.43
2019-05-11T00:17:52.305Z,4.90
2019-05-11T00:18:28.144Z,4.33
2019-05-11T00:19:04.504Z,4.37
2019-05-11T00:19:40.471Z,4.43
2019-05-11T00:20:16.471Z,5.13
2019-05-11T00:20:52.320Z,5.40
2019-05-11T00:21:28.160Z,4.87
2019-05-11T00:22:04.429Z,5.80
2019-05-11T00:22:40.311Z,4.33
2019-05-11T00:23:16.224Z,4.30
2019-05-11T00:23:52.217Z,5.07
2019-05-11T00:24:29.645Z,5.30
2019-05-11T00:25:05.969Z,4.47
2019-05-11T00:25:41.865Z,4.57
2019-05-11T00:26:18.273Z,5.00
2019-05-11T00:26:54.208Z,4.43
2019-05-11T00:27:30.111Z,4.83
2019-05-11T00:28:06.098Z,4.40
2019-05-11T00:28:42.120Z,5.00
2019-05-11T00:29:17.987Z,6.13
2019-05-11T00:29:53.882Z,4.93
2019-05-11T00:30:29.712Z,4.70
2019-05-11T00:31:05.585Z,4.27
2019-05-11T00:31:41.443Z,4.23
2019-05-11T00:32:17.341Z,5.70
2019-05-11T00:32:53.249Z,4.60
2019-05-11T00:33:29.068Z,4.50
2019-05-11T00:34:05.073Z,4.03
2019-05-11T00:34:40.967Z,4.73
2019-05-11T00:35:16.781Z,4.77
2019-05-11T00:35:52.718Z,4.33
2019-05-11T00:36:28.595Z,5.53
2019-05-11T00:37:04.440Z,4.83
2019-05-11T00:37:40.295Z,4.63
2019-05-11T00:38:17.620Z,5.93
2019-05-11T00:38:53.595Z,4.77
2019-05-11T00:39:29.667Z,4.60
2019-05-11T00:40:13.814Z,5.10
2019-05-11T00:40:43.248Z,5.47
2019-05-11T00:41:19.127Z,5.43
2019-05-11T00:41:56.250Z,5.60
2019-05-11T00:42:32.138Z,5.83
2019-05-11T00:43:08.052Z,4.80
2019-05-11T00:43:44.451Z,5.40
2019-05-11T00:44:20.377Z,5.17
2019-05-11T00:44:56.275Z,4.73
2019-05-11T00:45:32.256Z,5.40
2019-05-11T00:46:08.133Z,5.23
2019-05-11T00:46:44.012Z,5.07
2019-05-11T00:47:19.868Z,4.37
2019-05-11T00:47:56.080Z,4.33
2019-05-11T00:48:32.855Z,4.53
2019-05-11T00:49:08.678Z,4.50
2019-05-11T00:49:44.541Z,4.70
2019-05-11T00:50:20.383Z,4.40
2019-05-11T00:50:56.209Z,4.80
2019-05-11T00:51:32.034Z,5.53
2019-05-11T00:52:07.880Z,4.30
2019-05-11T00:52:43.728Z,4.87
2019-05-11T00:53:19.623Z,5.03
2019-05-11T00:53:55.480Z,5.00
2019-05-11T00:54:31.367Z,4.27
2019-05-11T00:55:07.341Z,4.70
2019-05-11T00:55:43.205Z,5.10
2019-05-11T00:56:19.052Z,4.57
2019-05-11T00:56:54.857Z,4.60
2019-05-11T00:57:30.714Z,4.90
2019-05-11T00:58:06.676Z,4.33
2019-05-11T00:58:42.658Z,4.93
2019-05-11T00:59:21.693Z,3.70
2019-05-11T00:59:56.124Z,4.90
2019-05-11T01:00:31.980Z,4.43
2019-05-11T01:01:08.037Z,4.17
2019-05-11T01:01:43.881Z,4.17
2019-05-11T01:02:20.791Z,4.13
2019-05-11T01:02:56.786Z,5.03
2019-05-11T01:03:32.635Z,4.10
2019-05-11T01:04:08.509Z,4.30
2019-05-11T01:04:44.392Z,3.90
2019-05-11T01:05:20.442Z,4.17
2019-05-11T01:05:56.343Z,3.50
2019-05-11T01:06:32.283Z,4.43
2019-05-11T01:07:11.600Z,3.53
2019-05-11T01:07:47.644Z,4.20
2019-05-11T01:08:23.466Z,3.80
2019-05-11T01:08:59.475Z,3.90
2019-05-11T01:09:35.443Z,3.90
2019-05-11T01:10:23.826Z,3.37
2019-05-11T01:10:49.207Z,3.23
2019-05-11T01:11:25.148Z,3.40
2019-05-11T01:12:00.991Z,4.23
2019-05-11T01:12:36.845Z,4.47
2019-05-11T01:13:12.731Z,2.93
2019-05-11T01:13:49.808Z,3.97
2019-05-11T01:14:25.634Z,3.90
2019-05-11T01:15:01.517Z,3.47
2019-05-11T01:15:37.334Z,4.33
2019-05-11T01:16:13.219Z,3.23
2019-05-11T01:16:49.101Z,3.73
2019-05-11T01:17:25.008Z,3.57
2019-05-11T01:18:00.903Z,3.73
2019-05-11T01:18:36.788Z,3.50
2019-05-11T01:19:12.633Z,4.60
2019-05-11T01:19:48.497Z,3.90
2019-05-11T01:20:24.348Z,3.90
2019-05-11T01:21:00.207Z,3.53
2019-05-11T01:21:36.560Z,3.83
2019-05-11T01:22:12.667Z,3.27
2019-05-11T01:22:48.556Z,4.20
2019-05-11T01:23:24.489Z,3.30
2019-05-11T01:24:00.453Z,3.47
2019-05-11T01:24:36.316Z,3.97
2019-05-11T01:25:12.263Z,3.13
2019-05-11T01:25:48.165Z,4.23
2019-05-11T01:26:24.222Z,3.73
2019-05-11T01:27:00.098Z,4.07
2019-05-11T01:27:36.139Z,3.80
2019-05-11T01:28:12.003Z,5.10
2019-05-11T01:28:47.886Z,4.07
2019-05-11T01:29:23.700Z,3.27
2019-05-11T01:29:59.569Z,4.43
2019-05-11T01:30:38.543Z,3.60
2019-05-11T01:31:13.089Z,3.27
2019-05-11T01:31:49.035Z,4.03
2019-05-11T01:32:25.079Z,3.40
2019-05-11T01:33:01.034Z,4.07
2019-05-11T01:33:37.055Z,5.10
2019-05-11T01:34:12.907Z,3.83
2019-05-11T01:34:48.758Z,3.73
2019-05-11T01:35:24.578Z,4.37
2019-05-11T01:36:00.418Z,3.97
2019-05-11T01:36:36.269Z,3.50
2019-05-11T01:37:12.267Z,3.33
2019-05-11T01:37:48.114Z,3.90
2019-05-11T01:38:24.009Z,4.17
2019-05-11T01:38:59.876Z,4.00
2019-05-11T01:39:35.740Z,3.90
2019-05-11T01:40:11.827Z,3.70
2019-05-11T01:40:58.161Z,3.33
2019-05-11T01:41:25.413Z,4.13
2019-05-11T01:42:01.284Z,3.77
2019-05-11T01:42:37.211Z,3.60
2019-05-11T01:43:13.046Z,4.17
2019-05-11T01:43:48.988Z,3.60
2019-05-11T01:44:24.915Z,3.67
2019-05-11T01:45:00.777Z,3.63
2019-05-11T01:45:37.024Z,3.40
2019-05-11T01:46:12.916Z,3.20
2019-05-11T01:46:48.740Z,3.30
2019-05-11T01:47:24.586Z,4.97
2019-05-11T01:48:00.470Z,3.00
2019-05-11T01:48:36.321Z,3.10
2019-05-11T01:49:12.250Z,3.33
2019-05-11T01:49:48.102Z,3.80
2019-05-11T01:50:23.959Z,4.83
2019-05-11T01:50:59.856Z,4.17
2019-05-11T01:51:35.719Z,3.27
2019-05-11T01:52:11.582Z,3.23
2019-05-11T01:52:47.394Z,3.97
2019-05-11T01:53:23.387Z,3.70
2019-05-11T01:53:59.305Z,3.73
2019-05-11T01:54:37.066Z,2.93
2019-05-11T01:55:13.171Z,4.13
2019-05-11T01:55:49.172Z,4.07
2019-05-11T01:56:25.005Z,2.70
2019-05-11T01:57:00.860Z,2.90
2019-05-11T01:57:36.746Z,3.50
2019-05-11T01:58:12.567Z,3.97
2019-05-11T01:58:48.385Z,4.03
2019-05-11T01:59:24.235Z,2.97
2019-05-11T02:00:00.111Z,3.60
2019-05-11T02:00:36.053Z,3.63
2019-05-11T02:01:11.953Z,3.23
2019-05-11T02:01:47.808Z,2.80
2019-05-11T02:02:23.648Z,3.77
2019-05-11T02:02:59.608Z,4.00
2019-05-11T02:03:35.440Z,3.57
2019-05-11T02:04:11.351Z,3.27
2019-05-11T02:04:49.130Z,4.37
2019-05-11T02:05:33.896Z,3.27
2019-05-11T02:06:09.853Z,3.80
2019-05-11T02:06:45.638Z,3.97
2019-05-11T02:07:21.496Z,3.93
2019-05-11T02:07:57.523Z,3.90
2019-05-11T02:08:33.341Z,4.07
2019-05-11T02:09:09.294Z,4.20
2019-05-11T02:09:46.997Z,3.50
2019-05-11T02:10:22.881Z,3.97
2019-05-11T02:11:13.763Z,3.37
2019-05-11T02:11:36.485Z,3.17
2019-05-11T02:12:12.336Z,4.27
2019-05-11T02:12:48.267Z,4.07
2019-05-11T02:13:24.766Z,3.80
2019-05-11T02:14:00.566Z,3.70
2019-05-11T02:14:36.540Z,3.30
2019-05-11T02:15:12.428Z,3.10
2019-05-11T02:15:48.305Z,3.77
2019-05-11T02:16:24.186Z,4.03
2019-05-11T02:17:00.015Z,4.13
2019-05-11T02:17:35.865Z,4.03
2019-05-11T02:18:11.737Z,3.87
2019-05-11T02:18:47.913Z,3.40
2019-05-11T02:19:23.772Z,3.43
2019-05-11T02:20:00.069Z,3.93
2019-05-11T02:20:35.931Z,3.00
2019-05-11T02:21:11.827Z,3.30
2019-05-11T02:21:47.730Z,3.20
2019-05-11T02:22:23.879Z,3.47
2019-05-11T02:22:59.744Z,3.50
2019-05-11T02:23:35.587Z,3.20
2019-05-11T02:24:11.476Z,3.80
2019-05-11T02:24:47.323Z,3.10
2019-05-11T02:25:23.207Z,3.80
2019-05-11T02:25:59.451Z,3.33
2019-05-11T02:26:35.295Z,3.30
2019-05-11T02:27:11.156Z,3.13
2019-05-11T02:27:47.030Z,3.47
2019-05-11T02:28:22.836Z,3.23
2019-05-11T02:28:58.688Z,2.93
2019-05-11T02:29:34.524Z,2.60
2019-05-11T02:30:10.454Z,2.90
2019-05-11T02:30:46.342Z,3.53
2019-05-11T02:31:22.368Z,3.90
2019-05-11T02:31:58.219Z,3.90
2019-05-11T02:32:35.432Z,3.93
2019-05-11T02:33:11.283Z,3.23
2019-05-11T02:33:47.223Z,3.43
2019-05-11T02:34:23.203Z,2.83
2019-05-11T02:35:01.008Z,3.60
2019-05-11T02:35:36.841Z,3.67
2019-05-11T02:36:12.684Z,4.00
2019-05-11T02:36:48.552Z,3.50
2019-05-11T02:37:24.402Z,3.70
2019-05-11T02:38:00.298Z,4.07
2019-05-11T02:38:36.356Z,3.67
2019-05-11T02:39:12.176Z,4.10
2019-05-11T02:39:48.038Z,3.30
2019-05-11T02:40:23.989Z,3.80
2019-05-11T02:40:59.827Z,3.47
2019-05-11T02:41:37.412Z,3.10
2019-05-11T02:42:13.492Z,4.27
2019-05-11T02:42:49.400Z,3.23
2019-05-11T02:43:26.031Z,3.80
2019-05-11T02:44:01.985Z,3.87
2019-05-11T02:44:37.853Z,4.27
2019-05-11T02:45:13.863Z,3.30
2019-05-11T02:45:49.832Z,3.73
2019-05-11T02:46:26.693Z,3.40
2019-05-11T02:47:02.697Z,3.90
2019-05-11T02:47:38.642Z,3.10
2019-05-11T02:48:14.501Z,3.80
2019-05-11T02:48:50.494Z,3.77
2019-05-11T02:49:28.152Z,4.20
2019-05-11T02:50:06.456Z,4.60
2019-05-11T02:50:42.454Z,3.50
2019-05-11T02:51:18.392Z,3.20
2019-05-11T02:51:54.395Z,3.70
2019-05-11T02:52:30.363Z,3.50
2019-05-11T02:53:06.389Z,3.80
2019-05-11T02:53:42.618Z,3.70
2019-05-11T02:54:18.593Z,3.00
2019-05-11T02:54:55.103Z,4.03
2019-05-11T02:55:31.359Z,3.60
2019-05-11T02:56:07.189Z,2.87
2019-05-11T02:56:43.007Z,3.33
2019-05-11T02:57:18.835Z,3.30
2019-05-11T02:57:57.283Z,3.20
2019-05-11T02:58:33.121Z,3.30
2019-05-11T02:59:09.051Z,3.27
2019-05-11T02:59:44.892Z,3.43
2019-05-11T03:00:24.127Z,3.10
2019-05-11T03:00:59.994Z,3.30
2019-05-11T03:01:38.468Z,4.10
2019-05-11T03:02:14.280Z,3.10
2019-05-11T03:02:50.147Z,3.63
2019-05-11T03:03:26.070Z,3.80
2019-05-11T03:04:03.289Z,3.17
2019-05-11T03:04:39.100Z,3.83
2019-05-11T03:05:14.978Z,3.40
2019-05-11T03:05:50.821Z,3.80
2019-05-11T03:06:26.723Z,3.40
2019-05-11T03:07:02.585Z,3.30
2019-05-11T03:07:38.433Z,3.27
2019-05-11T03:08:14.466Z,3.80
2019-05-11T03:08:50.527Z,3.97
2019-05-11T03:09:26.431Z,4.37
2019-05-11T03:10:02.268Z,3.40
2019-05-11T03:10:38.113Z,3.90
2019-05-11T03:11:13.923Z,3.67
2019-05-11T03:11:55.656Z,3.40
2019-05-11T03:12:27.613Z,3.60
2019-05-11T03:13:03.578Z,3.60
2019-05-11T03:13:39.418Z,4.10
2019-05-11T03:14:18.354Z,3.13
2019-05-11T03:14:54.209Z,4.70
2019-05-11T03:15:30.435Z,3.60
2019-05-11T03:16:06.407Z,3.37
2019-05-11T03:16:42.233Z,4.47
2019-05-11T03:17:21.839Z,3.87
2019-05-11T03:17:57.717Z,3.73
2019-05-11T03:18:33.561Z,4.07
2019-05-11T03:19:09.468Z,3.30
2019-05-11T03:19:45.300Z,3.60
2019-05-11T03:20:23.188Z,3.93
2019-05-11T03:20:59.052Z,3.83
2019-05-11T03:21:34.987Z,4.70
2019-05-11T03:22:10.851Z,3.77
2019-05-11T03:22:47.187Z,3.63
2019-05-11T03:23:23.039Z,3.80
2019-05-11T03:23:58.906Z,4.33
2019-05-11T03:24:34.741Z,4.47
2019-05-11T03:25:10.583Z,4.03
2019-05-11T03:25:46.387Z,3.70
2019-05-11T03:26:22.344Z,4.10
2019-05-11T03:26:58.302Z,3.93
2019-05-11T03:27:34.145Z,4.67
2019-05-11T03:28:10.026Z,3.70
2019-05-11T03:28:45.890Z,3.80
2019-05-11T03:29:21.752Z,4.27
2019-05-11T03:30:01.096Z,4.50
2019-05-11T03:30:36.054Z,4.10
2019-05-11T03:31:11.991Z,4.60
2019-05-11T03:31:47.874Z,5.23
2019-05-11T03:32:23.761Z,4.40
2019-05-11T03:32:59.708Z,3.50
2019-05-11T03:33:35.658Z,4.03
2019-05-11T03:34:11.570Z,3.63
2019-05-11T03:34:47.416Z,4.87
2019-05-11T03:35:23.336Z,3.77
2019-05-11T03:35:59.203Z,4.20
2019-05-11T03:36:35.026Z,4.37
2019-05-11T03:37:10.850Z,3.90
2019-05-11T03:37:46.815Z,4.20
2019-05-11T03:38:22.808Z,4.50
2019-05-11T03:38:58.618Z,4.57
2019-05-11T03:39:34.430Z,4.10
2019-05-11T03:40:10.270Z,4.30
2019-05-11T03:40:48.728Z,5.53
2019-05-11T03:41:24.895Z,4.63
2019-05-11T03:42:14.276Z,3.53
2019-05-11T03:42:38.900Z,4.77
2019-05-11T03:43:14.892Z,4.70
2019-05-11T03:43:50.724Z,4.83
2019-05-11T03:44:26.649Z,4.20
2019-05-11T03:45:02.601Z,4.90
2019-05-11T03:45:38.450Z,4.60
2019-05-11T03:46:14.315Z,4.47
2019-05-11T03:46:50.161Z,4.60
2019-05-11T03:47:26.078Z,5.27
2019-05-11T03:48:01.925Z,4.80
2019-05-11T03:48:37.838Z,3.90
2019-05-11T03:49:13.778Z,4.87
2019-05-11T03:49:49.654Z,4.23
2019-05-11T03:50:25.495Z,4.50
2019-05-11T03:51:01.354Z,4.77
2019-05-11T03:51:37.166Z,5.13
2019-05-11T03:52:13.141Z,5.50
2019-05-11T03:52:50.218Z,5.50
2019-05-11T03:53:26.053Z,4.30
2019-05-11T03:54:01.896Z,6.07
2019-05-11T03:54:37.751Z,3.90
2019-05-11T03:55:13.803Z,4.60
2019-05-11T03:55:50.521Z,4.43
2019-05-11T03:56:26.367Z,4.20
2019-05-11T03:57:02.261Z,4.43
2019-05-11T03:57:38.058Z,4.30
2019-05-11T03:58:13.913Z,4.33
2019-05-11T03:58:49.745Z,3.90
2019-05-11T03:59:25.662Z,3.93
2019-05-11T04:00:01.492Z,3.83
2019-05-11T04:00:37.323Z,3.53
2019-05-11T04:01:13.165Z,5.13
2019-05-11T04:01:49.007Z,4.10
2019-05-11T04:02:24.872Z,3.90
2019-05-11T04:03:00.733Z,3.83
2019-05-11T04:03:36.602Z,3.60
2019-05-11T04:04:16.305Z,3.87
2019-05-11T04:04:50.269Z,3.53
2019-05-11T04:05:26.097Z,4.00
2019-05-11T04:06:01.940Z,3.50
2019-05-11T04:06:37.749Z,3.50
2019-05-11T04:07:14.022Z,3.47
2019-05-11T04:07:49.888Z,3.40
2019-05-11T04:08:25.743Z,3.37
2019-05-11T04:09:01.796Z,3.03
2019-05-11T04:09:37.642Z,4.60
2019-05-11T04:10:13.632Z,4.00
2019-05-11T04:10:49.560Z,4.77
2019-05-11T04:11:25.407Z,4.07
2019-05-11T04:12:01.336Z,4.37
2019-05-11T04:12:37.209Z,3.50
2019-05-11T04:13:13.004Z,4.30
2019-05-11T04:13:48.881Z,3.63
2019-05-11T04:14:24.700Z,3.90
2019-05-11T04:15:00.560Z,3.97
2019-05-11T04:15:36.395Z,3.87
2019-05-11T04:16:12.240Z,3.60
2019-05-11T04:16:48.093Z,3.33
2019-05-11T04:17:23.911Z,3.23
2019-05-11T04:17:59.872Z,3.37
2019-05-11T04:18:35.709Z,3.23
2019-05-11T04:19:11.576Z,2.90
2019-05-11T04:19:47.556Z,3.43
2019-05-11T04:20:23.418Z,3.40
2019-05-11T04:20:59.263Z,3.37
2019-05-11T04:21:35.100Z,4.40
2019-05-11T04:22:10.959Z,3.80
2019-05-11T04:22:46.816Z,2.87
2019-05-11T04:23:22.637Z,3.77
2019-05-11T04:23:58.493Z,3.33
2019-05-11T04:24:34.310Z,3.50
2019-05-11T04:25:10.140Z,3.93
2019-05-11T04:25:45.986Z,3.17
2019-05-11T04:26:21.852Z,3.50
2019-05-11T04:26:57.688Z,4.00
2019-05-11T04:27:33.558Z,3.33
2019-05-11T04:28:09.477Z,3.67
2019-05-11T04:28:45.349Z,3.63
2019-05-11T04:29:21.195Z,3.00
2019-05-11T04:29:57.041Z,3.67
2019-05-11T04:30:32.927Z,3.63
2019-05-11T04:31:08.770Z,4.00
2019-05-11T04:31:44.592Z,3.50
2019-05-11T04:32:20.434Z,3.50
2019-05-11T04:32:56.289Z,3.50
2019-05-11T04:33:33.119Z,3.60
2019-05-11T04:34:09.396Z,3.10
2019-05-11T04:34:45.220Z,3.90
2019-05-11T04:35:21.124Z,3.50
2019-05-11T04:35:59.602Z,3.50
2019-05-11T04:36:35.450Z,3.40
2019-05-11T04:37:11.314Z,3.23
2019-05-11T04:37:47.182Z,3.20
2019-05-11T04:38:23.135Z,3.70
2019-05-11T04:38:58.982Z,3.60
2019-05-11T04:39:34.839Z,3.00
2019-05-11T04:40:10.682Z,4.13
2019-05-11T04:40:46.515Z,3.97
2019-05-11T04:41:22.341Z,3.33
2019-05-11T04:41:58.194Z,3.40
2019-05-11T04:42:51.822Z,3.27
2019-05-11T04:43:11.765Z,3.77
2019-05-11T04:43:47.615Z,3.10
2019-05-11T04:44:23.447Z,3.00
2019-05-11T04:45:01.429Z,3.50
2019-05-11T04:45:37.236Z,3.80
2019-05-11T04:46:14.607Z,3.53
2019-05-11T04:46:50.464Z,3.13
2019-05-11T04:47:26.295Z,2.67
2019-05-11T04:48:02.196Z,2.97
2019-05-11T04:48:38.014Z,3.50
2019-05-11T04:49:13.832Z,3.23
2019-05-11T04:49:49.706Z,2.93
2019-05-11T04:50:26.917Z,2.80
2019-05-11T04:51:02.755Z,2.73
2019-05-11T04:51:38.632Z,2.83
2019-05-11T04:52:14.565Z,3.10
2019-05-11T04:52:50.415Z,2.80
2019-05-11T04:53:26.253Z,3.90
2019-05-11T04:54:02.205Z,2.73
2019-05-11T04:54:38.096Z,2.80
2019-05-11T04:55:14.119Z,3.33
2019-05-11T04:55:50.012Z,2.70
2019-05-11T04:56:25.841Z,2.70
2019-05-11T04:57:01.701Z,2.93
2019-05-11T04:57:37.537Z,3.30
2019-05-11T04:58:13.515Z,2.63
2019-05-11T04:58:49.385Z,2.87
2019-05-11T04:59:25.229Z,3.13
2019-05-11T05:00:01.085Z,2.83
2019-05-11T05:00:36.923Z,2.60
2019-05-11T05:01:12.762Z,2.50
2019-05-11T05:01:48.681Z,2.90
2019-05-11T05:02:27.191Z,3.00
2019-05-11T05:03:02.311Z,3.10
2019-05-11T05:03:41.145Z,3.30
2019-05-11T05:04:15.943Z,3.20
2019-05-11T05:04:51.874Z,3.00
2019-05-11T05:05:27.736Z,2.77
2019-05-11T05:06:20.890Z,2.73
2019-05-11T05:06:41.282Z,2.43
2019-05-11T05:07:17.125Z,2.67
2019-05-11T05:07:52.959Z,3.97
2019-05-11T05:08:28.773Z,3.77
2019-05-11T05:09:06.967Z,3.47
2019-05-11T05:09:44.779Z,3.40
2019-05-11T05:10:22.338Z,2.97
2019-05-11T05:11:00.539Z,2.80
2019-05-11T05:11:36.651Z,3.10
2019-05-11T05:12:15.509Z,3.00
2019-05-11T05:12:53.322Z,3.90
2019-05-11T05:13:31.327Z,3.03
2019-05-11T05:14:08.119Z,2.70
2019-05-11T05:14:44.811Z,2.90
2019-05-11T05:15:20.745Z,2.60
2019-05-11T05:15:56.735Z,3.27
2019-05-11T05:16:33.987Z,2.50
2019-05-11T05:17:09.887Z,2.93
2019-05-11T05:17:45.727Z,3.40
2019-05-11T05:18:21.600Z,2.93
2019-05-11T05:18:59.573Z,2.40
2019-05-11T05:19:35.395Z,3.00
2019-05-11T05:20:11.291Z,3.13
2019-05-11T05:20:47.160Z,2.90
2019-05-11T05:21:23.133Z,2.03
2019-05-11T05:21:58.941Z,3.07
2019-05-11T05:22:34.733Z,3.20
2019-05-11T05:23:10.793Z,2.80
2019-05-11T05:23:46.779Z,3.33
2019-05-11T05:24:22.594Z,2.60
2019-05-11T05:24:58.478Z,2.43
2019-05-11T05:25:34.347Z,3.10
2019-05-11T05:26:10.350Z,3.17
2019-05-11T05:26:46.305Z,2.77
2019-05-11T05:27:22.144Z,2.63
2019-05-11T05:27:57.988Z,2.40
2019-05-11T05:28:33.829Z,2.87
2019-05-11T05:29:09.648Z,2.27
2019-05-11T05:29:45.532Z,3.43
2019-05-11T05:30:21.505Z,3.70
2019-05-11T05:30:57.384Z,3.07
2019-05-11T05:31:33.711Z,2.50
2019-05-11T05:32:09.674Z,2.93
2019-05-11T05:32:45.480Z,2.23
2019-05-11T05:33:21.322Z,2.73
2019-05-11T05:34:01.030Z,2.40
2019-05-11T05:34:34.839Z,2.97
2019-05-11T05:35:10.801Z,2.93
2019-05-11T05:35:46.732Z,3.33
2019-05-11T05:36:22.621Z,2.93
2019-05-11T05:36:58.461Z,3.47
2019-05-11T05:37:34.307Z,2.67
2019-05-11T05:38:10.229Z,3.50
2019-05-11T05:38:46.038Z,2.40
2019-05-11T05:39:21.977Z,2.70
2019-05-11T05:39:57.821Z,2.70
2019-05-11T05:40:33.698Z,2.70
2019-05-11T05:41:09.524Z,2.87
2019-05-11T05:41:56.688Z,2.17
2019-05-11T05:42:23.026Z,2.93
2019-05-11T05:42:58.869Z,2.50
2019-05-11T05:43:34.668Z,3.23
2019-05-11T05:44:10.598Z,3.30
2019-05-11T05:44:46.422Z,2.63
2019-05-11T05:45:22.266Z,2.67
2019-05-11T05:45:58.089Z,2.80
2019-05-11T05:46:33.915Z,2.60
2019-05-11T05:47:09.727Z,3.50
2019-05-11T05:47:45.655Z,3.70
2019-05-11T05:48:21.501Z,3.50
2019-05-11T05:48:57.323Z,2.63
2019-05-11T05:49:33.924Z,2.57
2019-05-11T05:50:09.901Z,3.17
2019-05-11T05:50:45.753Z,3.00
2019-05-11T05:51:21.585Z,3.10
2019-05-11T05:51:58.317Z,3.57
2019-05-11T05:52:35.719Z,3.20
2019-05-11T05:53:11.579Z,5.17
2019-05-11T05:53:47.388Z,4.27
2019-05-11T05:54:23.348Z,4.40
2019-05-11T05:54:59.176Z,4.90
2019-05-11T05:55:35.052Z,5.00
2019-05-11T05:56:11.929Z,4.60
2019-05-11T05:56:47.942Z,4.50
2019-05-11T05:57:23.764Z,4.67
2019-05-11T05:57:59.601Z,4.40
2019-05-11T05:58:35.516Z,4.70
2019-05-11T05:59:11.437Z,4.20
2019-05-11T05:59:47.336Z,4.30
2019-05-11T06:00:23.298Z,4.97
2019-05-11T06:00:59.097Z,4.97
2019-05-11T06:01:34.913Z,5.80
2019-05-11T06:02:11.573Z,6.70
2019-05-11T06:02:47.466Z,5.67
2019-05-11T06:03:23.314Z,7.83
2019-05-11T06:03:59.200Z,7.67
2019-05-11T06:04:35.057Z,8.97
2019-05-11T06:05:10.979Z,6.97
2019-05-11T06:05:47.435Z,7.43
2019-05-11T06:06:23.290Z,6.93
2019-05-11T06:06:59.121Z,7.00
2019-05-11T06:07:34.997Z,6.97
2019-05-11T06:08:10.850Z,7.07
2019-05-11T06:08:49.025Z,7.73
2019-05-11T06:09:24.938Z,5.30
2019-05-11T06:10:00.954Z,6.60
2019-05-11T06:10:37.219Z,7.90
2019-05-11T06:11:13.172Z,6.17
2019-05-11T06:11:49.062Z,4.33
2019-05-11T06:12:24.905Z,4.90
2019-05-11T06:13:00.760Z,5.27
2019-05-11T06:13:45.193Z,4.60
2019-05-11T06:14:14.257Z,4.87
2019-05-11T06:14:50.116Z,4.70
2019-05-11T06:15:26.095Z,5.10
2019-05-11T06:16:01.908Z,5.70
2019-05-11T06:16:37.747Z,4.27
2019-05-11T06:17:15.415Z,5.80
2019-05-11T06:17:51.248Z,3.83
2019-05-11T06:18:27.132Z,5.77
2019-05-11T06:19:03.479Z,5.10
2019-05-11T06:19:39.349Z,5.07
2019-05-11T06:20:15.329Z,5.07
2019-05-11T06:20:51.169Z,5.00
2019-05-11T06:21:27.015Z,5.37
2019-05-11T06:22:02.882Z,5.73
2019-05-11T06:22:38.726Z,5.40
2019-05-11T06:23:14.580Z,5.60
2019-05-11T06:23:50.486Z,4.37
2019-05-11T06:24:26.297Z,4.67
2019-05-11T06:25:02.150Z,5.23
2019-05-11T06:25:37.993Z,3.50
2019-05-11T06:26:13.869Z,4.10
2019-05-11T06:26:49.763Z,4.40
2019-05-11T06:27:25.662Z,4.00
2019-05-11T06:28:01.544Z,4.90
2019-05-11T06:28:37.420Z,4.03
2019-05-11T06:29:14.166Z,4.20
2019-05-11T06:29:50.001Z,3.40
2019-05-11T06:30:25.832Z,3.50
2019-05-11T06:31:01.673Z,3.53
2019-05-11T06:31:37.533Z,3.00
2019-05-11T06:32:13.363Z,3.70
2019-05-11T06:32:49.325Z,3.93
2019-05-11T06:33:25.198Z,4.00
2019-05-11T06:34:01.045Z,4.57
2019-05-11T06:34:36.907Z,4.93
2019-05-11T06:35:12.846Z,5.03
2019-05-11T06:35:48.721Z,4.30
2019-05-11T06:36:24.732Z,4.30
2019-05-11T06:37:00.597Z,4.27
2019-05-11T06:37:38.220Z,4.93
2019-05-11T06:38:14.322Z,4.80
2019-05-11T06:38:50.271Z,4.30
2019-05-11T06:39:26.092Z,4.83
2019-05-11T06:40:01.955Z,4.33
2019-05-11T06:40:37.872Z,4.97
2019-05-11T06:41:13.715Z,3.87
2019-05-11T06:41:50.579Z,5.47
2019-05-11T06:42:27.506Z,5.80
2019-05-11T06:43:03.470Z,4.87
2019-05-11T06:43:39.358Z,4.70
2019-05-11T06:44:15.267Z,4.30
2019-05-11T06:44:51.164Z,5.53
2019-05-11T06:45:27.001Z,4.80
2019-05-11T06:46:03.413Z,5.17
2019-05-11T06:46:39.263Z,3.90
2019-05-11T06:47:15.138Z,6.00
2019-05-11T06:47:53.157Z,5.57
2019-05-11T06:48:28.971Z,6.53
2019-05-11T06:49:04.826Z,5.40
2019-05-11T06:49:40.670Z,5.10
2019-05-11T06:50:16.554Z,4.67
2019-05-11T06:50:53.499Z,5.67
2019-05-11T06:51:29.336Z,5.43
2019-05-11T06:52:05.283Z,5.93
2019-05-11T06:52:41.154Z,5.90
2019-05-11T06:53:16.977Z,5.13
2019-05-11T06:53:52.917Z,5.77
2019-05-11T06:54:28.779Z,5.30
2019-05-11T06:55:04.597Z,4.37
2019-05-11T06:55:40.411Z,5.37
2019-05-11T06:56:16.316Z,5.13
2019-05-11T06:56:52.148Z,4.43
2019-05-11T06:57:27.966Z,4.37
2019-05-11T06:58:03.831Z,5.00
2019-05-11T06:58:39.671Z,4.43
2019-05-11T06:59:15.522Z,3.60
2019-05-11T06:59:51.636Z,4.20
2019-05-11T07:00:27.478Z,4.13
2019-05-11T07:01:03.301Z,3.70
2019-05-11T07:01:39.151Z,4.17
2019-05-11T07:02:14.976Z,3.20
2019-05-11T07:02:50.827Z,3.10
2019-05-11T07:03:26.701Z,3.90
2019-05-11T07:04:02.608Z,3.50
2019-05-11T07:04:38.464Z,4.00
2019-05-11T07:05:14.318Z,3.80
2019-05-11T07:05:50.148Z,2.97
2019-05-11T07:06:30.120Z,2.70
2019-05-11T07:07:03.664Z,3.00
2019-05-11T07:07:47.468Z,3.13
2019-05-11T07:08:18.417Z,3.30
2019-05-11T07:08:54.271Z,3.37
2019-05-11T07:09:30.139Z,3.40
2019-05-11T07:10:06.359Z,3.77
2019-05-11T07:10:42.250Z,3.27
2019-05-11T07:11:18.119Z,3.50
2019-05-11T07:11:54.047Z,3.40
2019-05-11T07:12:29.933Z,3.30
2019-05-11T07:13:05.751Z,3.20
2019-05-11T07:13:42.100Z,3.17
2019-05-11T07:14:20.980Z,3.47
2019-05-11T07:14:55.663Z,3.03
2019-05-11T07:15:31.529Z,3.67
2019-05-11T07:16:07.416Z,3.17
2019-05-11T07:16:43.971Z,3.87
2019-05-11T07:17:19.876Z,5.00
2019-05-11T07:17:55.847Z,2.37
2019-05-11T07:18:31.881Z,3.10
2019-05-11T07:19:07.722Z,3.70
2019-05-11T07:19:47.193Z,3.10
2019-05-11T07:20:21.200Z,4.30
2019-05-11T07:20:57.052Z,2.97
2019-05-11T07:21:32.871Z,3.73
2019-05-11T07:22:08.692Z,2.50
2019-05-11T07:22:44.577Z,3.93
2019-05-11T07:23:22.832Z,3.97
2019-05-11T07:23:58.777Z,2.60
2019-05-11T07:24:34.590Z,3.47
2019-05-11T07:25:10.467Z,3.77
2019-05-11T07:25:46.293Z,2.57
2019-05-11T07:26:22.138Z,3.20
2019-05-11T07:26:58.131Z,2.63
2019-05-11T07:27:33.993Z,2.80
2019-05-11T07:28:09.827Z,3.00
2019-05-11T07:28:45.704Z,3.70
2019-05-11T07:29:21.658Z,4.03
2019-05-11T07:29:57.567Z,3.43
2019-05-11T07:30:33.537Z,4.10
2019-05-11T07:31:09.378Z,3.30
2019-05-11T07:31:45.347Z,3.40
2019-05-11T07:32:25.774Z,3.33
2019-05-11T07:33:00.984Z,3.70
2019-05-11T07:33:37.988Z,3.60
2019-05-11T07:34:13.959Z,3.97
2019-05-11T07:34:49.823Z,2.80
2019-05-11T07:35:27.845Z,2.83
2019-05-11T07:36:03.353Z,3.07
2019-05-11T07:36:39.168Z,3.07
2019-05-11T07:37:18.401Z,3.33
2019-05-11T07:37:53.961Z,3.00
2019-05-11T07:38:31.341Z,3.00
2019-05-11T07:39:08.454Z,3.30
2019-05-11T07:39:44.366Z,3.10
2019-05-11T07:40:20.265Z,2.43
2019-05-11T07:40:58.263Z,2.93
2019-05-11T07:41:34.264Z,2.97
2019-05-11T07:42:10.222Z,3.63
2019-05-11T07:42:48.376Z,2.93
2019-05-11T07:43:23.850Z,2.70
2019-05-11T07:43:59.852Z,2.67
2019-05-11T07:44:38.699Z,2.70
2019-05-11T07:45:13.436Z,2.93
2019-05-11T07:45:49.352Z,2.97
2019-05-11T07:46:25.429Z,3.37
2019-05-11T07:47:01.412Z,3.30
2019-05-11T07:47:38.079Z,2.70
2019-05-11T07:48:14.321Z,3.23
2019-05-11T07:48:50.315Z,3.00
2019-05-11T07:49:26.132Z,2.60
2019-05-11T07:50:01.989Z,3.57
2019-05-11T07:50:38.779Z,2.50
2019-05-11T07:51:14.800Z,2.30
2019-05-11T07:51:50.777Z,3.67
2019-05-11T07:52:28.681Z,2.60
2019-05-11T07:53:04.217Z,3.40
2019-05-11T07:53:40.088Z,2.17
2019-05-11T07:54:15.940Z,2.70
2019-05-11T07:54:52.994Z,3.00
2019-05-11T07:55:29.056Z,3.00
2019-05-11T07:56:04.889Z,2.93
2019-05-11T07:56:40.752Z,2.70
2019-05-11T07:57:18.563Z,2.77
2019-05-11T07:57:54.286Z,2.43
2019-05-11T07:58:30.129Z,3.00
2019-05-11T07:59:08.006Z,2.60
2019-05-11T07:59:43.726Z,2.67
2019-05-11T08:00:19.802Z,2.20
2019-05-11T08:00:57.975Z,2.43